Forside
METAR-TAF:

METAR-TAF

Lufthavne :

El Salvador, El Salvador

Breddekreds: 13-26N, længdekreds: 089-03W, højde: 25 m

Aktuelle vejr

Denne rapport blev lavet for 1 time og 4 minutter siden, kl. 02:50 UTC
Vind 1 kt fra varierende retninger
Temperatur 27°C
Fugtighed 84%
Tryk 1012 hPa
Sigt 10 km eller mere
Nogle få skyer i en højde af 4000 ft, Cumulonimbus.

METAR: MSLP 230250Z VRB01KT 9999 FEW040CB 27/24 Q1011 A2988 NOSIG CB LTG WNW

Tid: 21:54 (03:54 UTC)

Vejrudsigter

Denne rapport blev lavet for 6 timer og 29 minutter siden, kl. 21:25 UTC
Foreløbig gælder fra 23 på 00 UTC til 23 på 24 UTC
Vind 6 kt fra østnordøst
Sigt 10 km eller mere
Spredte skyer i en højde af 7700 ft
Fra 23 på 1800 UTC
Vind 10 kt fra sydsydvest
Sigt 10 km eller mere
Nogle få skyer i en højde af 3700 ft
Nogle få skyer i en højde af 4000 ft, Cumulonimbus.

TAF: MSLP 222125Z 2300/2324 06006KT 9999 SCT077 TX33/2318Z TN25/2312Z FM231800 21010KT 9999 FEW037 FEW040CB

Vejrobservationer og prognoser fra mere end 4000 lufthavne (METAR og TAF).

De gule og røde prikker repræsenterer de meteorologiske stationer.

Flyt musen over at se navnet på stationen.

Så klik over at se vejr observationer og prognoser.

At skifte det kort: Klik på de grønne knapper med et sort kors for at zoome ind; på den grønne knap med en bindestreg for at zoome ud; eller på de grønne pile for tilstødende kort.


METAR-TAF: